sensor_id;sensor_type;location;lat;lon;timestamp;pressure;altitude;pressure_sealevel;temperature;humidity
29569;BME280;16501;51.462;14.346;2022-12-19T00:01:29;101504.97;;;-5.02;93.29
29569;BME280;16501;51.462;14.346;2022-12-19T00:04:01;101541.00;;;-4.67;93.15
29569;BME280;16501;51.462;14.346;2022-12-19T00:06:28;101523.50;;;-4.87;93.17
29569;BME280;16501;51.462;14.346;2022-12-19T00:08:56;101480.34;;;-5.02;92.97
29569;BME280;16501;51.462;14.346;2022-12-19T00:11:25;101444.63;;;-5.18;92.72
29569;BME280;16501;51.462;14.346;2022-12-19T00:13:51;101508.44;;;-4.81;92.50
29569;BME280;16501;51.462;14.346;2022-12-19T00:16:20;101528.13;;;-4.66;92.68
29569;BME280;16501;51.462;14.346;2022-12-19T00:18:47;101503.81;;;-4.68;92.93
29569;BME280;16501;51.462;14.346;2022-12-19T00:21:19;101462.19;;;-4.86;92.33
29569;BME280;16501;51.462;14.346;2022-12-19T00:23:46;101481.59;;;-4.66;92.84
29569;BME280;16501;51.462;14.346;2022-12-19T00:26:16;101436.81;;;-4.95;92.85
29569;BME280;16501;51.462;14.346;2022-12-19T00:28:43;101424.19;;;-5.00;92.57
29569;BME280;16501;51.462;14.346;2022-12-19T00:31:13;101479.31;;;-4.64;93.10
29569;BME280;16501;51.462;14.346;2022-12-19T00:33:40;101439.56;;;-4.95;92.68
29569;BME280;16501;51.462;14.346;2022-12-19T00:36:09;101477.13;;;-4.71;92.16
29569;BME280;16501;51.462;14.346;2022-12-19T00:38:36;101420.53;;;-4.92;92.61
29569;BME280;16501;51.462;14.346;2022-12-19T00:41:18;101430.25;;;-4.82;92.54
29569;BME280;16501;51.462;14.346;2022-12-19T00:43:45;101457.41;;;-4.64;92.51
29569;BME280;16501;51.462;14.346;2022-12-19T00:46:14;101427.19;;;-4.80;92.64
29569;BME280;16501;51.462;14.346;2022-12-19T00:48:40;101429.59;;;-4.66;92.62
29569;BME280;16501;51.462;14.346;2022-12-19T00:51:09;101369.69;;;-5.05;92.78
29569;BME280;16501;51.462;14.346;2022-12-19T00:53:35;101394.00;;;-4.91;92.88
29569;BME280;16501;51.462;14.346;2022-12-19T00:56:02;101419.00;;;-4.68;92.31
29569;BME280;16501;51.462;14.346;2022-12-19T00:58:28;101389.88;;;-4.85;91.77
29569;BME280;16501;51.462;14.346;2022-12-19T01:00:53;101395.34;;;-4.85;92.04
29569;BME280;16501;51.462;14.346;2022-12-19T01:03:19;101297.47;;;-5.50;92.31
29569;BME280;16501;51.462;14.346;2022-12-19T01:05:44;101407.66;;;-4.91;92.86
29569;BME280;16501;51.462;14.346;2022-12-19T01:08:09;101433.31;;;-4.83;93.10
29569;BME280;16501;51.462;14.346;2022-12-19T01:10:35;101400.31;;;-5.12;93.09
29569;BME280;16501;51.462;14.346;2022-12-19T01:13:00;101442.56;;;-4.76;93.56
29569;BME280;16501;51.462;14.346;2022-12-19T01:15:27;101399.16;;;-5.11;94.15
29569;BME280;16501;51.462;14.346;2022-12-19T01:17:53;101429.47;;;-4.82;93.97
29569;BME280;16501;51.462;14.346;2022-12-19T01:20:20;101429.78;;;-4.84;93.30
29569;BME280;16501;51.462;14.346;2022-12-19T01:22:46;101443.84;;;-4.73;93.64
29569;BME280;16501;51.462;14.346;2022-12-19T01:25:13;101440.31;;;-4.74;93.04
29569;BME280;16501;51.462;14.346;2022-12-19T01:27:39;101460.38;;;-4.69;92.76
29569;BME280;16501;51.462;14.346;2022-12-19T01:30:06;101458.00;;;-4.59;93.01
29569;BME280;16501;51.462;14.346;2022-12-19T01:32:34;101430.94;;;-4.72;93.52
29569;BME280;16501;51.462;14.346;2022-12-19T01:35:00;101426.38;;;-4.81;93.61
29569;BME280;16501;51.462;14.346;2022-12-19T01:37:26;101440.88;;;-4.68;93.64
29569;BME280;16501;51.462;14.346;2022-12-19T01:39:53;101432.53;;;-4.84;93.20
29569;BME280;16501;51.462;14.346;2022-12-19T01:42:21;101423.88;;;-4.86;93.13
29569;BME280;16501;51.462;14.346;2022-12-19T01:47:45;101430.50;;;-4.62;93.36
29569;BME280;16501;51.462;14.346;2022-12-19T01:50:16;101388.53;;;-4.91;92.68
29569;BME280;16501;51.462;14.346;2022-12-19T01:52:42;101418.44;;;-4.61;93.07
29569;BME280;16501;51.462;14.346;2022-12-19T01:55:11;101411.78;;;-4.72;93.23
29569;BME280;16501;51.462;14.346;2022-12-19T01:57:38;101392.84;;;-4.78;92.10
29569;BME280;16501;51.462;14.346;2022-12-19T02:00:04;101372.78;;;-4.94;91.26
29569;BME280;16501;51.462;14.346;2022-12-19T02:02:33;101343.13;;;-5.17;91.33
29569;BME280;16501;51.462;14.346;2022-12-19T02:05:00;101384.66;;;-4.78;90.80
29569;BME280;16501;51.462;14.346;2022-12-19T02:07:27;101365.50;;;-4.78;91.31
29569;BME280;16501;51.462;14.346;2022-12-19T02:09:54;101356.94;;;-4.76;90.73
29569;BME280;16501;51.462;14.346;2022-12-19T02:12:20;101394.03;;;-4.66;90.46
29569;BME280;16501;51.462;14.346;2022-12-19T02:14:46;101313.16;;;-5.13;90.71
29569;BME280;16501;51.462;14.346;2022-12-19T02:17:33;101330.69;;;-5.02;91.49
29569;BME280;16501;51.462;14.346;2022-12-19T02:31:26;101360.25;;;-4.70;91.25
29569;BME280;16501;51.462;14.346;2022-12-19T02:34:02;101275.31;;;-5.23;91.27
29569;BME280;16501;51.462;14.346;2022-12-19T02:36:36;101324.66;;;-5.20;91.25
29569;BME280;16501;51.462;14.346;2022-12-19T02:39:10;101352.25;;;-4.76;91.06
29569;BME280;16501;51.462;14.346;2022-12-19T02:41:55;101306.78;;;-5.17;90.96
29569;BME280;16501;51.462;14.346;2022-12-19T02:44:31;101350.22;;;-4.91;91.87
29569;BME280;16501;51.462;14.346;2022-12-19T02:46:59;101336.53;;;-4.91;91.87
29569;BME280;16501;51.462;14.346;2022-12-19T02:49:35;101335.38;;;-4.90;91.90
29569;BME280;16501;51.462;14.346;2022-12-19T02:52:09;101354.44;;;-4.81;91.75
29569;BME280;16501;51.462;14.346;2022-12-19T02:54:35;101333.09;;;-5.00;91.58
29569;BME280;16501;51.462;14.346;2022-12-19T02:57:18;101316.47;;;-5.07;91.67
29569;BME280;16501;51.462;14.346;2022-12-19T03:00:03;101288.97;;;-5.23;92.43
29569;BME280;16501;51.462;14.346;2022-12-19T03:05:34;101357.50;;;-4.83;91.98
29569;BME280;16501;51.462;14.346;2022-12-19T03:11:03;101347.94;;;-4.89;93.15
29569;BME280;16501;51.462;14.346;2022-12-19T03:15:59;101283.94;;;-5.34;92.87
29569;BME280;16501;51.462;14.346;2022-12-19T03:18:26;101331.66;;;-4.85;92.90
29569;BME280;16501;51.462;14.346;2022-12-19T03:21:16;101303.56;;;-5.07;93.26
29569;BME280;16501;51.462;14.346;2022-12-19T03:23:44;101334.94;;;-4.92;93.82
29569;BME280;16501;51.462;14.346;2022-12-19T03:26:19;101330.72;;;-4.89;94.94
29569;BME280;16501;51.462;14.346;2022-12-19T03:29:00;101340.63;;;-4.85;95.11
29569;BME280;16501;51.462;14.346;2022-12-19T03:31:30;101344.06;;;-4.63;95.78
29569;BME280;16501;51.462;14.346;2022-12-19T03:34:04;101329.13;;;-4.78;95.51
29569;BME280;16501;51.462;14.346;2022-12-19T03:36:36;101358.44;;;-4.91;96.25
29569;BME280;16501;51.462;14.346;2022-12-19T03:39:05;101300.88;;;-4.82;96.37
29569;BME280;16501;51.462;14.346;2022-12-19T03:41:33;101321.50;;;-4.72;96.33
29569;BME280;16501;51.462;14.346;2022-12-19T03:44:20;101296.31;;;-4.90;96.27
29569;BME280;16501;51.462;14.346;2022-12-19T03:46:57;101298.91;;;-4.94;96.68
29569;BME280;16501;51.462;14.346;2022-12-19T03:49:25;101298.34;;;-4.75;97.08
29569;BME280;16501;51.462;14.346;2022-12-19T03:55:07;101292.66;;;-4.82;96.90
29569;BME280;16501;51.462;14.346;2022-12-19T03:57:41;101310.75;;;-4.65;97.51
29569;BME280;16501;51.462;14.346;2022-12-19T04:00:11;101340.41;;;-4.43;97.91
29569;BME280;16501;51.462;14.346;2022-12-19T04:02:38;101307.56;;;-4.55;98.56
29569;BME280;16501;51.462;14.346;2022-12-19T04:05:11;101326.03;;;-4.40;98.05
29569;BME280;16501;51.462;14.346;2022-12-19T04:07:39;101326.91;;;-4.36;97.86
29569;BME280;16501;51.462;14.346;2022-12-19T04:10:10;101327.41;;;-4.33;98.21
29569;BME280;16501;51.462;14.346;2022-12-19T04:12:41;101334.91;;;-4.30;98.60
29569;BME280;16501;51.462;14.346;2022-12-19T04:15:09;101321.47;;;-4.48;98.77
29569;BME280;16501;51.462;14.346;2022-12-19T04:17:43;101334.44;;;-4.32;98.73
29569;BME280;16501;51.462;14.346;2022-12-19T04:20:15;101317.13;;;-4.37;98.35
29569;BME280;16501;51.462;14.346;2022-12-19T04:22:55;101342.19;;;-4.22;98.43
29569;BME280;16501;51.462;14.346;2022-12-19T04:25:28;101335.25;;;-4.32;98.55
29569;BME280;16501;51.462;14.346;2022-12-19T04:28:02;101289.09;;;-4.58;98.72
29569;BME280;16501;51.462;14.346;2022-12-19T04:30:30;101323.13;;;-4.19;98.53
29569;BME280;16501;51.462;14.346;2022-12-19T04:32:56;101327.72;;;-4.23;99.21
29569;BME280;16501;51.462;14.346;2022-12-19T04:35:22;101260.91;;;-4.59;99.20
29569;BME280;16501;51.462;14.346;2022-12-19T04:37:47;101253.97;;;-4.56;99.75
29569;BME280;16501;51.462;14.346;2022-12-19T04:40:13;101303.50;;;-4.21;99.85
29569;BME280;16501;51.462;14.346;2022-12-19T04:42:38;101283.69;;;-4.30;99.08
29569;BME280;16501;51.462;14.346;2022-12-19T04:45:04;101317.75;;;-4.15;100.00
29569;BME280;16501;51.462;14.346;2022-12-19T04:47:30;101292.91;;;-4.22;99.78
29569;BME280;16501;51.462;14.346;2022-12-19T04:49:55;101235.47;;;-4.47;100.00
29569;BME280;16501;51.462;14.346;2022-12-19T04:52:20;101257.25;;;-4.38;99.86
29569;BME280;16501;51.462;14.346;2022-12-19T04:54:46;101262.78;;;-4.22;100.00
29569;BME280;16501;51.462;14.346;2022-12-19T04:57:11;101244.00;;;-4.36;99.74
29569;BME280;16501;51.462;14.346;2022-12-19T04:59:38;101291.53;;;-4.16;100.00
29569;BME280;16501;51.462;14.346;2022-12-19T05:02:06;101256.66;;;-4.31;100.00
29569;BME280;16501;51.462;14.346;2022-12-19T05:04:31;101284.00;;;-4.19;100.00
29569;BME280;16501;51.462;14.346;2022-12-19T05:06:57;101304.75;;;-4.18;100.00
29569;BME280;16501;51.462;14.346;2022-12-19T05:09:22;101297.09;;;-4.12;100.00
29569;BME280;16501;51.462;14.346;2022-12-19T05:11:47;101283.41;;;-4.12;99.91
29569;BME280;16501;51.462;14.346;2022-12-19T05:14:13;101265.09;;;-4.37;100.00
29569;BME280;16501;51.462;14.346;2022-12-19T05:16:39;101228.63;;;-4.53;100.00
29569;BME280;16501;51.462;14.346;2022-12-19T05:19:04;101246.63;;;-4.40;100.00
29569;BME280;16501;51.462;14.346;2022-12-19T05:21:30;101316.44;;;-3.93;100.00
29569;BME280;16501;51.462;14.346;2022-12-19T05:23:55;101311.22;;;-3.98;99.96
29569;BME280;16501;51.462;14.346;2022-12-19T05:26:20;101249.91;;;-4.34;100.00
29569;BME280;16501;51.462;14.346;2022-12-19T05:28:46;101303.53;;;-3.92;100.00
29569;BME280;16501;51.462;14.346;2022-12-19T05:31:19;101283.16;;;-4.07;99.64
29569;BME280;16501;51.462;14.346;2022-12-19T05:33:45;101193.91;;;-4.65;100.00
29569;BME280;16501;51.462;14.346;2022-12-19T05:36:13;101295.75;;;-3.90;100.00
29569;BME280;16501;51.462;14.346;2022-12-19T05:38:39;101284.44;;;-3.89;99.62
29569;BME280;16501;51.462;14.346;2022-12-19T05:41:13;101235.84;;;-4.20;99.98
29569;BME280;16501;51.462;14.346;2022-12-19T05:43:38;101253.63;;;-4.14;99.78
29569;BME280;16501;51.462;14.346;2022-12-19T05:46:05;101281.63;;;-3.92;99.34
29569;BME280;16501;51.462;14.346;2022-12-19T05:48:30;101247.34;;;-4.14;99.85
29569;BME280;16501;51.462;14.346;2022-12-19T05:50:56;101256.66;;;-4.03;99.76
29569;BME280;16501;51.462;14.346;2022-12-19T05:53:21;101297.75;;;-3.75;99.40
29569;BME280;16501;51.462;14.346;2022-12-19T05:55:48;101309.97;;;-3.72;99.49
29569;BME280;16501;51.462;14.346;2022-12-19T05:58:14;101252.31;;;-4.04;99.61
29569;BME280;16501;51.462;14.346;2022-12-19T06:00:40;101239.38;;;-4.20;99.33
29569;BME280;16501;51.462;14.346;2022-12-19T06:03:05;101289.44;;;-3.79;100.00
29569;BME280;16501;51.462;14.346;2022-12-19T06:05:31;101251.81;;;-3.94;99.52
29569;BME280;16501;51.462;14.346;2022-12-19T06:07:57;101269.13;;;-3.77;100.00
29569;BME280;16501;51.462;14.346;2022-12-19T06:10:22;101306.50;;;-3.69;99.96
29569;BME280;16501;51.462;14.346;2022-12-19T06:12:48;101294.03;;;-3.83;99.81
29569;BME280;16501;51.462;14.346;2022-12-19T06:15:13;101289.63;;;-3.71;100.00
29569;BME280;16501;51.462;14.346;2022-12-19T06:17:38;101285.66;;;-3.74;100.00
29569;BME280;16501;51.462;14.346;2022-12-19T06:20:04;101277.88;;;-3.72;100.00
29569;BME280;16501;51.462;14.346;2022-12-19T06:22:30;101283.69;;;-3.73;100.00
29569;BME280;16501;51.462;14.346;2022-12-19T06:24:56;101256.38;;;-3.70;100.00
29569;BME280;16501;51.462;14.346;2022-12-19T06:27:21;101257.34;;;-3.78;100.00
29569;BME280;16501;51.462;14.346;2022-12-19T06:29:46;101256.19;;;-3.77;99.76
29569;BME280;16501;51.462;14.346;2022-12-19T06:32:11;101283.72;;;-3.57;100.00
29569;BME280;16501;51.462;14.346;2022-12-19T06:34:37;101264.69;;;-3.66;100.00
29569;BME280;16501;51.462;14.346;2022-12-19T06:37:02;101245.78;;;-3.71;100.00
29569;BME280;16501;51.462;14.346;2022-12-19T06:39:27;101257.28;;;-3.66;100.00
29569;BME280;16501;51.462;14.346;2022-12-19T06:41:53;101284.09;;;-3.43;99.83
29569;BME280;16501;51.462;14.346;2022-12-19T06:44:36;101200.84;;;-3.99;100.00
29569;BME280;16501;51.462;14.346;2022-12-19T06:47:02;101289.50;;;-3.47;100.00
29569;BME280;16501;51.462;14.346;2022-12-19T06:49:27;101272.50;;;-3.52;99.76
29569;BME280;16501;51.462;14.346;2022-12-19T06:51:52;101224.44;;;-3.78;100.00
29569;BME280;16501;51.462;14.346;2022-12-19T06:54:18;101282.44;;;-3.48;99.36
29569;BME280;16501;51.462;14.346;2022-12-19T06:56:43;101270.69;;;-3.48;100.00
29569;BME280;16501;51.462;14.346;2022-12-19T06:59:14;101240.94;;;-3.62;98.87
29569;BME280;16501;51.462;14.346;2022-12-19T07:02:17;101300.78;;;-3.20;99.67
29569;BME280;16501;51.462;14.346;2022-12-19T07:04:56;101306.59;;;-3.22;99.06
29569;BME280;16501;51.462;14.346;2022-12-19T07:07:25;101282.69;;;-3.37;99.11
29569;BME280;16501;51.462;14.346;2022-12-19T07:09:51;101296.41;;;-3.21;98.62
29569;BME280;16501;51.462;14.346;2022-12-19T07:12:16;101290.16;;;-3.22;98.42
29569;BME280;16501;51.462;14.346;2022-12-19T07:14:42;101289.44;;;-3.18;99.63
29569;BME280;16501;51.462;14.346;2022-12-19T07:17:07;101320.59;;;-3.11;98.71
29569;BME280;16501;51.462;14.346;2022-12-19T07:19:33;101285.53;;;-3.17;99.37
29569;BME280;16501;51.462;14.346;2022-12-19T07:22:00;101304.22;;;-3.07;99.10
29569;BME280;16501;51.462;14.346;2022-12-19T07:24:26;101274.13;;;-3.19;99.56
29569;BME280;16501;51.462;14.346;2022-12-19T07:26:52;101296.41;;;-3.05;99.89
29569;BME280;16501;51.462;14.346;2022-12-19T07:29:17;101310.31;;;-2.98;98.03
29569;BME280;16501;51.462;14.346;2022-12-19T07:31:43;101258.38;;;-3.23;97.67
29569;BME280;16501;51.462;14.346;2022-12-19T07:34:09;101256.06;;;-3.20;98.90
29569;BME280;16501;51.462;14.346;2022-12-19T07:36:35;101283.31;;;-3.12;98.30
29569;BME280;16501;51.462;14.346;2022-12-19T07:39:00;101257.66;;;-3.35;98.70
29569;BME280;16501;51.462;14.346;2022-12-19T07:41:27;101220.41;;;-3.36;98.74
29569;BME280;16501;51.462;14.346;2022-12-19T07:43:52;101240.94;;;-3.30;98.95
29569;BME280;16501;51.462;14.346;2022-12-19T07:46:17;101256.25;;;-3.13;98.99
29569;BME280;16501;51.462;14.346;2022-12-19T07:48:42;101283.06;;;-2.91;99.00
29569;BME280;16501;51.462;14.346;2022-12-19T07:51:08;101295.09;;;-2.79;97.95
29569;BME280;16501;51.462;14.346;2022-12-19T07:53:33;101273.31;;;-2.88;99.21
29569;BME280;16501;51.462;14.346;2022-12-19T07:55:59;101295.09;;;-2.79;99.04
29569;BME280;16501;51.462;14.346;2022-12-19T07:58:25;101288.09;;;-2.77;99.01
29569;BME280;16501;51.462;14.346;2022-12-19T08:00:57;101261.47;;;-2.92;98.36
29569;BME280;16501;51.462;14.346;2022-12-19T08:03:23;101288.88;;;-2.76;97.87
29569;BME280;16501;51.462;14.346;2022-12-19T08:05:49;101282.34;;;-2.88;98.58
29569;BME280;16501;51.462;14.346;2022-12-19T08:08:14;101211.31;;;-3.25;98.53
29569;BME280;16501;51.462;14.346;2022-12-19T08:10:40;101294.38;;;-2.76;97.70
29569;BME280;16501;51.462;14.346;2022-12-19T08:13:06;101283.28;;;-2.64;96.75
29569;BME280;16501;51.462;14.346;2022-12-19T08:15:31;101279.50;;;-2.75;97.63
29569;BME280;16501;51.462;14.346;2022-12-19T08:17:56;101264.47;;;-2.81;96.85
29569;BME280;16501;51.462;14.346;2022-12-19T08:20:22;101256.06;;;-2.89;97.41
29569;BME280;16501;51.462;14.346;2022-12-19T08:22:47;101266.56;;;-2.75;98.18
29569;BME280;16501;51.462;14.346;2022-12-19T08:25:12;101253.03;;;-2.83;98.33
29569;BME280;16501;51.462;14.346;2022-12-19T08:27:38;101215.28;;;-3.06;97.26
29569;BME280;16501;51.462;14.346;2022-12-19T08:30:04;101315.84;;;-2.47;97.52
29569;BME280;16501;51.462;14.346;2022-12-19T08:32:29;101282.84;;;-2.66;97.91
29569;BME280;16501;51.462;14.346;2022-12-19T08:34:56;101296.91;;;-2.52;96.18
29569;BME280;16501;51.462;14.346;2022-12-19T08:37:22;101273.59;;;-2.58;96.19
29569;BME280;16501;51.462;14.346;2022-12-19T08:39:49;101253.88;;;-2.63;96.22
29569;BME280;16501;51.462;14.346;2022-12-19T08:42:15;101267.31;;;-2.58;96.35
29569;BME280;16501;51.462;14.346;2022-12-19T08:44:41;101275.28;;;-2.53;96.86
29569;BME280;16501;51.462;14.346;2022-12-19T08:47:06;101267.41;;;-2.55;96.32
29569;BME280;16501;51.462;14.346;2022-12-19T08:49:32;101219.16;;;-2.72;96.26
29569;BME280;16501;51.462;14.346;2022-12-19T08:51:57;101282.91;;;-2.47;95.86
29569;BME280;16501;51.462;14.346;2022-12-19T08:54:22;101297.44;;;-2.27;96.42
29569;BME280;16501;51.462;14.346;2022-12-19T08:56:47;101262.22;;;-2.40;95.85
29569;BME280;16501;51.462;14.346;2022-12-19T08:59:14;101280.66;;;-2.21;96.38
29569;BME280;16501;51.462;14.346;2022-12-19T09:01:39;101238.94;;;-2.47;96.13
29569;BME280;16501;51.462;14.346;2022-12-19T09:04:05;101184.31;;;-2.71;95.09
29569;BME280;16501;51.462;14.346;2022-12-19T09:06:33;101211.69;;;-2.55;94.87
29569;BME280;16501;51.462;14.346;2022-12-19T09:09:02;101244.97;;;-2.21;94.98
29569;BME280;16501;51.462;14.346;2022-12-19T09:11:27;101275.13;;;-2.05;95.89
29569;BME280;16501;51.462;14.346;2022-12-19T09:13:55;101203.25;;;-2.47;93.84
29569;BME280;16501;51.462;14.346;2022-12-19T09:16:22;101254.44;;;-1.99;93.21
29569;BME280;16501;51.462;14.346;2022-12-19T09:18:49;101287.13;;;-1.75;93.37
29569;BME280;16501;51.462;14.346;2022-12-19T09:21:17;101265.69;;;-1.85;93.09
29569;BME280;16501;51.462;14.346;2022-12-19T09:23:47;101273.72;;;-1.76;92.94
29569;BME280;16501;51.462;14.346;2022-12-19T09:26:13;101231.72;;;-1.96;93.67
29569;BME280;16501;51.462;14.346;2022-12-19T09:28:39;101250.03;;;-1.84;93.48
29569;BME280;16501;51.462;14.346;2022-12-19T09:31:25;101258.09;;;-1.72;93.67
29569;BME280;16501;51.462;14.346;2022-12-19T09:33:51;101250.94;;;-1.77;92.64
29569;BME280;16501;51.462;14.346;2022-12-19T09:36:21;101184.28;;;-2.13;92.83
29569;BME280;16501;51.462;14.346;2022-12-19T09:38:48;101244.44;;;-1.68;92.13
29569;BME280;16501;51.462;14.346;2022-12-19T09:41:43;101234.38;;;-1.80;91.95
29569;BME280;16501;51.462;14.346;2022-12-19T09:46:54;101216.19;;;-1.65;92.35
29569;BME280;16501;51.462;14.346;2022-12-19T09:49:27;101220.91;;;-1.43;91.96
29569;BME280;16501;51.462;14.346;2022-12-19T09:54:36;101207.34;;;-1.32;90.85
29569;BME280;16501;51.462;14.346;2022-12-19T09:57:12;101141.75;;;-1.76;91.33
29569;BME280;16501;51.462;14.346;2022-12-19T09:59:57;101180.63;;;-1.55;90.86
29569;BME280;16501;51.462;14.346;2022-12-19T10:02:43;101195.09;;;-1.35;91.88
29569;BME280;16501;51.462;14.346;2022-12-19T10:07:43;101204.97;;;-1.07;90.59
29569;BME280;16501;51.462;14.346;2022-12-19T10:10:26;101173.75;;;-1.18;89.95
29569;BME280;16501;51.462;14.346;2022-12-19T10:13:13;101149.19;;;-1.30;91.00
29569;BME280;16501;51.462;14.346;2022-12-19T10:15:59;101174.22;;;-1.12;90.64
29569;BME280;16501;51.462;14.346;2022-12-19T10:18:36;101179.34;;;-1.11;91.71
29569;BME280;16501;51.462;14.346;2022-12-19T10:21:23;101125.38;;;-1.46;92.04
29569;BME280;16501;51.462;14.346;2022-12-19T10:24:02;101147.75;;;-1.21;92.06
29569;BME280;16501;51.462;14.346;2022-12-19T10:26:41;101112.88;;;-1.40;91.69
29569;BME280;16501;51.462;14.346;2022-12-19T10:34:40;101139.69;;;-1.06;91.98
29569;BME280;16501;51.462;14.346;2022-12-19T10:37:32;101132.19;;;-1.09;92.34
29569;BME280;16501;51.462;14.346;2022-12-19T10:40:14;101139.84;;;-0.96;92.25
29569;BME280;16501;51.462;14.346;2022-12-19T10:45:32;101133.53;;;-0.96;92.33
29569;BME280;16501;51.462;14.346;2022-12-19T10:48:00;101058.47;;;-1.23;92.76
29569;BME280;16501;51.462;14.346;2022-12-19T10:50:28;101107.00;;;-0.81;91.40
29569;BME280;16501;51.462;14.346;2022-12-19T10:53:04;101141.13;;;-0.59;92.11
29569;BME280;16501;51.462;14.346;2022-12-19T10:55:48;101131.34;;;-0.53;92.44
29569;BME280;16501;51.462;14.346;2022-12-19T10:58:35;101124.34;;;-0.47;92.10
29569;BME280;16501;51.462;14.346;2022-12-19T11:03:36;101115.69;;;-0.45;91.89
29569;BME280;16501;51.462;14.346;2022-12-19T11:06:03;101097.53;;;-0.50;91.37
29569;BME280;16501;51.462;14.346;2022-12-19T11:08:31;101131.72;;;-0.54;91.18
29569;BME280;16501;51.462;14.346;2022-12-19T11:16:05;101103.03;;;-0.50;91.39
29569;BME280;16501;51.462;14.346;2022-12-19T11:18:47;101092.34;;;-0.55;90.42
29569;BME280;16501;51.462;14.346;2022-12-19T11:23:48;101083.72;;;-0.53;89.99
29569;BME280;16501;51.462;14.346;2022-12-19T11:29:44;101096.69;;;-0.16;89.81
29569;BME280;16501;51.462;14.346;2022-12-19T11:32:31;101055.31;;;-0.58;88.72
29569;BME280;16501;51.462;14.346;2022-12-19T11:35:21;101085.88;;;-0.36;88.95
29569;BME280;16501;51.462;14.346;2022-12-19T11:38:00;101014.81;;;-0.91;89.17
29569;BME280;16501;51.462;14.346;2022-12-19T11:40:45;101029.59;;;-0.72;89.61
29569;BME280;16501;51.462;14.346;2022-12-19T11:43:34;101052.13;;;-0.63;89.97
29569;BME280;16501;51.462;14.346;2022-12-19T11:46:10;101073.97;;;-0.44;89.53
29569;BME280;16501;51.462;14.346;2022-12-19T11:48:50;101068.66;;;-0.63;89.81
29569;BME280;16501;51.462;14.346;2022-12-19T11:51:32;101070.28;;;-0.59;90.45
29569;BME280;16501;51.462;14.346;2022-12-19T11:54:01;101071.84;;;-0.58;90.16
29569;BME280;16501;51.462;14.346;2022-12-19T11:56:30;101080.03;;;-0.65;91.01
29569;BME280;16501;51.462;14.346;2022-12-19T11:58:59;101055.25;;;-0.65;91.68
29569;BME280;16501;51.462;14.346;2022-12-19T12:07:16;101053.75;;;-0.59;91.05
29569;BME280;16501;51.462;14.346;2022-12-19T12:09:55;101022.16;;;-0.68;91.01
29569;BME280;16501;51.462;14.346;2022-12-19T12:12:28;101031.69;;;-0.62;90.16
29569;BME280;16501;51.462;14.346;2022-12-19T12:15:28;101075.13;;;-0.48;90.11
29569;BME280;16501;51.462;14.346;2022-12-19T12:21:08;101052.25;;;-0.49;91.30
29569;BME280;16501;51.462;14.346;2022-12-19T12:24:05;101046.38;;;-0.47;92.31
29569;BME280;16501;51.462;14.346;2022-12-19T12:27:02;101046.75;;;-0.49;90.87
29569;BME280;16501;51.462;14.346;2022-12-19T12:29:58;101037.16;;;-0.66;90.71
29569;BME280;16501;51.462;14.346;2022-12-19T12:32:44;101041.22;;;-0.52;91.13
29569;BME280;16501;51.462;14.346;2022-12-19T12:35:34;101034.97;;;-0.49;92.04
29569;BME280;16501;51.462;14.346;2022-12-19T12:38:26;101040.13;;;-0.44;92.95
29569;BME280;16501;51.462;14.346;2022-12-19T12:43:45;101012.81;;;-0.60;91.55
29569;BME280;16501;51.462;14.346;2022-12-19T12:46:18;101023.97;;;-0.46;91.88
29569;BME280;16501;51.462;14.346;2022-12-19T12:48:54;100999.03;;;-0.60;92.63
29569;BME280;16501;51.462;14.346;2022-12-19T12:51:23;100954.38;;;-0.80;91.67
29569;BME280;16501;51.462;14.346;2022-12-19T12:53:55;100977.31;;;-0.69;91.78
29569;BME280;16501;51.462;14.346;2022-12-19T12:56:23;100983.56;;;-0.72;92.13
29569;BME280;16501;51.462;14.346;2022-12-19T13:01:17;101001.91;;;-0.49;91.64
29569;BME280;16501;51.462;14.346;2022-12-19T13:03:57;100980.09;;;-0.65;92.75
29569;BME280;16501;51.462;14.346;2022-12-19T13:11:53;100934.53;;;-0.97;93.26
29569;BME280;16501;51.462;14.346;2022-12-19T13:14:42;100997.22;;;-0.45;92.87
29569;BME280;16501;51.462;14.346;2022-12-19T13:17:09;100922.84;;;-0.86;92.84
29569;BME280;16501;51.462;14.346;2022-12-19T13:19:38;100968.72;;;-0.64;92.86
29569;BME280;16501;51.462;14.346;2022-12-19T13:35:31;100979.09;;;-0.46;93.98
29569;BME280;16501;51.462;14.346;2022-12-19T13:38:44;100978.69;;;-0.48;95.07
29569;BME280;16501;51.462;14.346;2022-12-19T13:41:26;100979.09;;;-0.46;96.26
29569;BME280;16501;51.462;14.346;2022-12-19T13:44:20;100957.75;;;-0.57;97.70
29569;BME280;16501;51.462;14.346;2022-12-19T13:46:46;100944.28;;;-0.65;98.98
29569;BME280;16501;51.462;14.346;2022-12-19T13:49:27;100936.06;;;-0.62;100.00
29569;BME280;16501;51.462;14.346;2022-12-19T13:51:55;100957.00;;;-0.53;100.00
29569;BME280;16501;51.462;14.346;2022-12-19T13:54:35;100934.06;;;-0.65;100.00
29569;BME280;16501;51.462;14.346;2022-12-19T13:57:01;100915.78;;;-0.84;100.00
29569;BME280;16501;51.462;14.346;2022-12-19T13:59:31;100913.16;;;-0.73;100.00
29569;BME280;16501;51.462;14.346;2022-12-19T14:02:06;100937.28;;;-0.59;100.00
29569;BME280;16501;51.462;14.346;2022-12-19T14:04:39;100926.56;;;-0.71;100.00
29569;BME280;16501;51.462;14.346;2022-12-19T14:07:16;100947.13;;;-0.58;100.00
29569;BME280;16501;51.462;14.346;2022-12-19T14:09:48;100904.03;;;-0.81;100.00
29569;BME280;16501;51.462;14.346;2022-12-19T14:12:28;100915.91;;;-0.73;100.00
29569;BME280;16501;51.462;14.346;2022-12-19T14:15:44;100939.59;;;-0.61;100.00
29569;BME280;16501;51.462;14.346;2022-12-19T14:18:22;100887.00;;;-0.93;100.00
29569;BME280;16501;51.462;14.346;2022-12-19T14:21:05;100940.06;;;-0.55;100.00
29569;BME280;16501;51.462;14.346;2022-12-19T14:23:31;100920.22;;;-0.72;100.00
29569;BME280;16501;51.462;14.346;2022-12-19T14:25:56;100901.66;;;-0.79;100.00